sensor_id;sensor_type;location;lat;lon;timestamp;P1;P2;P0
64627;PMS5003;59036;50.960;0.314;2023-03-01T00:00:26;65;63;
64627;PMS5003;59036;50.960;0.314;2023-03-01T00:02:54;62;58;
64627;PMS5003;59036;50.960;0.314;2023-03-01T00:05:21;74;69;
64627;PMS5003;59036;50.960;0.314;2023-03-01T00:07:48;67;61;
64627;PMS5003;59036;50.960;0.314;2023-03-01T00:10:18;64;60;
64627;PMS5003;59036;50.960;0.314;2023-03-01T00:12:46;63;61;
64627;PMS5003;59036;50.960;0.314;2023-03-01T00:15:13;61;57;
64627;PMS5003;59036;50.960;0.314;2023-03-01T00:17:41;63;58;
64627;PMS5003;59036;50.960;0.314;2023-03-01T00:20:08;61;58;
64627;PMS5003;59036;50.960;0.314;2023-03-01T00:22:36;68;62;
64627;PMS5003;59036;50.960;0.314;2023-03-01T00:25:04;62;57;
64627;PMS5003;59036;50.960;0.314;2023-03-01T00:27:31;64;60;
64627;PMS5003;59036;50.960;0.314;2023-03-01T00:29:58;63;59;
64627;PMS5003;59036;50.960;0.314;2023-03-01T00:32:26;58;57;
64627;PMS5003;59036;50.960;0.314;2023-03-01T00:34:53;63;62;
64627;PMS5003;59036;50.960;0.314;2023-03-01T00:37:20;61;54;
64627;PMS5003;59036;50.960;0.314;2023-03-01T00:39:48;69;65;
64627;PMS5003;59036;50.960;0.314;2023-03-01T00:42:16;69;63;
64627;PMS5003;59036;50.960;0.314;2023-03-01T00:44:43;61;56;
64627;PMS5003;59036;50.960;0.314;2023-03-01T00:47:11;68;64;
64627;PMS5003;59036;50.960;0.314;2023-03-01T00:49:38;71;65;
64627;PMS5003;59036;50.960;0.314;2023-03-01T00:52:05;68;59;
64627;PMS5003;59036;50.960;0.314;2023-03-01T00:54:33;63;61;
64627;PMS5003;59036;50.960;0.314;2023-03-01T00:57:06;74;67;
64627;PMS5003;59036;50.960;0.314;2023-03-01T00:59:33;62;58;
64627;PMS5003;59036;50.960;0.314;2023-03-01T01:02:00;68;62;
64627;PMS5003;59036;50.960;0.314;2023-03-01T01:04:28;61;58;
64627;PMS5003;59036;50.960;0.314;2023-03-01T01:06:55;67;60;
64627;PMS5003;59036;50.960;0.314;2023-03-01T01:09:22;69;68;
64627;PMS5003;59036;50.960;0.314;2023-03-01T01:11:50;72;65;
64627;PMS5003;59036;50.960;0.314;2023-03-01T01:14:18;68;62;
64627;PMS5003;59036;50.960;0.314;2023-03-01T01:16:46;68;64;
64627;PMS5003;59036;50.960;0.314;2023-03-01T01:19:14;70;67;
64627;PMS5003;59036;50.960;0.314;2023-03-01T01:21:42;67;61;
64627;PMS5003;59036;50.960;0.314;2023-03-01T01:24:09;68;61;
64627;PMS5003;59036;50.960;0.314;2023-03-01T01:26:36;63;61;
64627;PMS5003;59036;50.960;0.314;2023-03-01T01:29:04;67;60;
64627;PMS5003;59036;50.960;0.314;2023-03-01T01:31:33;65;62;
64627;PMS5003;59036;50.960;0.314;2023-03-01T01:34:03;64;61;
64627;PMS5003;59036;50.960;0.314;2023-03-01T01:36:33;75;65;
64627;PMS5003;59036;50.960;0.314;2023-03-01T01:39:01;75;72;
64627;PMS5003;59036;50.960;0.314;2023-03-01T01:41:29;77;71;
64627;PMS5003;59036;50.960;0.314;2023-03-01T01:44:14;69;64;
64627;PMS5003;59036;50.960;0.314;2023-03-01T01:46:46;72;67;
64627;PMS5003;59036;50.960;0.314;2023-03-01T01:49:18;75;67;
64627;PMS5003;59036;50.960;0.314;2023-03-01T01:51:53;71;67;
64627;PMS5003;59036;50.960;0.314;2023-03-01T01:54:27;67;66;
64627;PMS5003;59036;50.960;0.314;2023-03-01T01:57:03;63;58;
64627;PMS5003;59036;50.960;0.314;2023-03-01T01:59:35;79;74;
64627;PMS5003;59036;50.960;0.314;2023-03-01T02:02:04;71;67;
64627;PMS5003;59036;50.960;0.314;2023-03-01T02:04:32;68;62;
64627;PMS5003;59036;50.960;0.314;2023-03-01T02:07:01;90;83;
64627;PMS5003;59036;50.960;0.314;2023-03-01T02:09:33;89;81;
64627;PMS5003;59036;50.960;0.314;2023-03-01T02:12:02;81;78;
64627;PMS5003;59036;50.960;0.314;2023-03-01T02:14:30;75;69;
64627;PMS5003;59036;50.960;0.314;2023-03-01T02:16:56;81;75;
64627;PMS5003;59036;50.960;0.314;2023-03-01T02:19:29;75;73;
64627;PMS5003;59036;50.960;0.314;2023-03-01T02:22:08;70;66;
64627;PMS5003;59036;50.960;0.314;2023-03-01T02:24:47;60;59;
64627;PMS5003;59036;50.960;0.314;2023-03-01T02:27:23;69;66;
64627;PMS5003;59036;50.960;0.314;2023-03-01T02:29:55;73;64;
64627;PMS5003;59036;50.960;0.314;2023-03-01T02:32:23;71;65;
64627;PMS5003;59036;50.960;0.314;2023-03-01T02:34:55;79;67;
64627;PMS5003;59036;50.960;0.314;2023-03-01T02:37:23;69;62;
64627;PMS5003;59036;50.960;0.314;2023-03-01T02:39:55;63;62;
64627;PMS5003;59036;50.960;0.314;2023-03-01T02:42:26;72;65;
64627;PMS5003;59036;50.960;0.314;2023-03-01T02:44:57;74;67;
64627;PMS5003;59036;50.960;0.314;2023-03-01T02:47:24;71;64;
64627;PMS5003;59036;50.960;0.314;2023-03-01T02:49:51;66;65;
64627;PMS5003;59036;50.960;0.314;2023-03-01T02:52:22;71;65;
64627;PMS5003;59036;50.960;0.314;2023-03-01T02:55:01;70;65;
64627;PMS5003;59036;50.960;0.314;2023-03-01T02:57:33;77;71;
64627;PMS5003;59036;50.960;0.314;2023-03-01T03:00:04;71;64;
64627;PMS5003;59036;50.960;0.314;2023-03-01T03:02:33;68;66;
64627;PMS5003;59036;50.960;0.314;2023-03-01T03:05:03;71;68;
64627;PMS5003;59036;50.960;0.314;2023-03-01T03:07:32;70;66;
64627;PMS5003;59036;50.960;0.314;2023-03-01T03:10:00;70;62;
64627;PMS5003;59036;50.960;0.314;2023-03-01T03:12:43;74;65;
64627;PMS5003;59036;50.960;0.314;2023-03-01T03:15:10;64;63;
64627;PMS5003;59036;50.960;0.314;2023-03-01T03:17:38;63;59;
64627;PMS5003;59036;50.960;0.314;2023-03-01T03:20:09;63;62;
64627;PMS5003;59036;50.960;0.314;2023-03-01T03:22:39;69;64;
64627;PMS5003;59036;50.960;0.314;2023-03-01T03:25:06;75;70;
64627;PMS5003;59036;50.960;0.314;2023-03-01T03:27:34;77;66;
64627;PMS5003;59036;50.960;0.314;2023-03-01T03:30:02;73;62;
64627;PMS5003;59036;50.960;0.314;2023-03-01T03:32:29;69;64;
64627;PMS5003;59036;50.960;0.314;2023-03-01T03:34:56;65;61;
64627;PMS5003;59036;50.960;0.314;2023-03-01T03:37:23;69;61;
64627;PMS5003;59036;50.960;0.314;2023-03-01T03:39:50;64;60;
64627;PMS5003;59036;50.960;0.314;2023-03-01T03:42:17;67;64;
64627;PMS5003;59036;50.960;0.314;2023-03-01T03:44:45;67;62;
64627;PMS5003;59036;50.960;0.314;2023-03-01T03:47:12;71;61;
64627;PMS5003;59036;50.960;0.314;2023-03-01T03:49:39;67;61;
64627;PMS5003;59036;50.960;0.314;2023-03-01T03:52:07;73;60;
64627;PMS5003;59036;50.960;0.314;2023-03-01T03:54:35;61;60;
64627;PMS5003;59036;50.960;0.314;2023-03-01T03:57:01;69;63;
64627;PMS5003;59036;50.960;0.314;2023-03-01T03:59:29;66;60;
64627;PMS5003;59036;50.960;0.314;2023-03-01T04:01:56;61;57;
64627;PMS5003;59036;50.960;0.314;2023-03-01T04:04:23;60;58;
64627;PMS5003;59036;50.960;0.314;2023-03-01T04:06:50;65;63;
64627;PMS5003;59036;50.960;0.314;2023-03-01T04:09:18;62;56;
64627;PMS5003;59036;50.960;0.314;2023-03-01T04:11:45;60;53;
64627;PMS5003;59036;50.960;0.314;2023-03-01T04:14:12;59;56;
64627;PMS5003;59036;50.960;0.314;2023-03-01T04:16:39;56;52;
64627;PMS5003;59036;50.960;0.314;2023-03-01T04:19:06;56;54;
64627;PMS5003;59036;50.960;0.314;2023-03-01T04:21:33;60;55;
64627;PMS5003;59036;50.960;0.314;2023-03-01T04:24:00;54;53;
64627;PMS5003;59036;50.960;0.314;2023-03-01T04:26:27;52;50;
64627;PMS5003;59036;50.960;0.314;2023-03-01T04:28:54;56;53;
64627;PMS5003;59036;50.960;0.314;2023-03-01T04:31:21;62;55;
64627;PMS5003;59036;50.960;0.314;2023-03-01T04:33:49;53;51;
64627;PMS5003;59036;50.960;0.314;2023-03-01T04:36:18;64;52;
64627;PMS5003;59036;50.960;0.314;2023-03-01T04:38:46;58;53;
64627;PMS5003;59036;50.960;0.314;2023-03-01T04:41:15;57;46;
64627;PMS5003;59036;50.960;0.314;2023-03-01T04:43:44;51;46;
64627;PMS5003;59036;50.960;0.314;2023-03-01T04:46:12;50;46;
64627;PMS5003;59036;50.960;0.314;2023-03-01T04:48:42;50;42;
64627;PMS5003;59036;50.960;0.314;2023-03-01T04:51:10;55;46;
64627;PMS5003;59036;50.960;0.314;2023-03-01T04:53:37;55;46;
64627;PMS5003;59036;50.960;0.314;2023-03-01T04:56:06;49;45;
64627;PMS5003;59036;50.960;0.314;2023-03-01T04:58:33;44;41;
64627;PMS5003;59036;50.960;0.314;2023-03-01T05:01:01;41;37;
64627;PMS5003;59036;50.960;0.314;2023-03-01T05:03:33;44;40;
64627;PMS5003;59036;50.960;0.314;2023-03-01T05:06:01;45;45;
64627;PMS5003;59036;50.960;0.314;2023-03-01T05:08:28;41;38;
64627;PMS5003;59036;50.960;0.314;2023-03-01T05:10:55;48;44;
64627;PMS5003;59036;50.960;0.314;2023-03-01T05:13:22;39;36;
64627;PMS5003;59036;50.960;0.314;2023-03-01T05:15:53;41;40;
64627;PMS5003;59036;50.960;0.314;2023-03-01T05:18:21;45;44;
64627;PMS5003;59036;50.960;0.314;2023-03-01T05:20:48;50;45;
64627;PMS5003;59036;50.960;0.314;2023-03-01T05:23:16;47;41;
64627;PMS5003;59036;50.960;0.314;2023-03-01T05:25:43;47;43;
64627;PMS5003;59036;50.960;0.314;2023-03-01T05:28:11;42;39;
64627;PMS5003;59036;50.960;0.314;2023-03-01T05:30:38;43;39;
64627;PMS5003;59036;50.960;0.314;2023-03-01T05:33:06;39;35;
64627;PMS5003;59036;50.960;0.314;2023-03-01T05:35:34;40;36;
64627;PMS5003;59036;50.960;0.314;2023-03-01T05:38:01;48;43;
64627;PMS5003;59036;50.960;0.314;2023-03-01T05:40:28;40;38;
64627;PMS5003;59036;50.960;0.314;2023-03-01T05:42:56;35;31;
64627;PMS5003;59036;50.960;0.314;2023-03-01T05:45:24;44;40;
64627;PMS5003;59036;50.960;0.314;2023-03-01T05:47:53;40;37;
64627;PMS5003;59036;50.960;0.314;2023-03-01T05:50:21;50;38;
64627;PMS5003;59036;50.960;0.314;2023-03-01T05:52:51;44;35;
64627;PMS5003;59036;50.960;0.314;2023-03-01T05:55:23;48;40;
64627;PMS5003;59036;50.960;0.314;2023-03-01T05:57:50;40;36;
64627;PMS5003;59036;50.960;0.314;2023-03-01T06:00:18;43;40;
64627;PMS5003;59036;50.960;0.314;2023-03-01T06:02:46;36;34;
64627;PMS5003;59036;50.960;0.314;2023-03-01T06:05:14;37;32;
64627;PMS5003;59036;50.960;0.314;2023-03-01T06:07:42;36;33;
64627;PMS5003;59036;50.960;0.314;2023-03-01T06:10:10;42;40;
64627;PMS5003;59036;50.960;0.314;2023-03-01T06:12:38;36;32;
64627;PMS5003;59036;50.960;0.314;2023-03-01T06:15:08;35;34;
64627;PMS5003;59036;50.960;0.314;2023-03-01T06:17:37;30;28;
64627;PMS5003;59036;50.960;0.314;2023-03-01T06:20:07;36;35;
64627;PMS5003;59036;50.960;0.314;2023-03-01T06:22:37;29;28;
64627;PMS5003;59036;50.960;0.314;2023-03-01T06:25:05;29;27;
64627;PMS5003;59036;50.960;0.314;2023-03-01T06:27:34;33;29;
64627;PMS5003;59036;50.960;0.314;2023-03-01T06:30:02;33;32;
64627;PMS5003;59036;50.960;0.314;2023-03-01T06:32:31;26;25;
64627;PMS5003;59036;50.960;0.314;2023-03-01T06:34:58;28;27;
64627;PMS5003;59036;50.960;0.314;2023-03-01T06:37:25;26;24;
64627;PMS5003;59036;50.960;0.314;2023-03-01T06:39:52;37;30;
64627;PMS5003;59036;50.960;0.314;2023-03-01T06:42:19;32;29;
64627;PMS5003;59036;50.960;0.314;2023-03-01T06:44:47;25;25;
64627;PMS5003;59036;50.960;0.314;2023-03-01T06:47:14;27;25;
64627;PMS5003;59036;50.960;0.314;2023-03-01T06:49:41;31;29;
64627;PMS5003;59036;50.960;0.314;2023-03-01T06:52:08;32;29;
64627;PMS5003;59036;50.960;0.314;2023-03-01T06:54:35;30;28;
64627;PMS5003;59036;50.960;0.314;2023-03-01T06:57:02;27;26;
64627;PMS5003;59036;50.960;0.314;2023-03-01T06:59:30;27;25;
64627;PMS5003;59036;50.960;0.314;2023-03-01T07:01:57;32;30;
64627;PMS5003;59036;50.960;0.314;2023-03-01T07:04:24;29;28;
64627;PMS5003;59036;50.960;0.314;2023-03-01T07:06:51;28;27;
64627;PMS5003;59036;50.960;0.314;2023-03-01T07:09:18;28;27;
64627;PMS5003;59036;50.960;0.314;2023-03-01T07:11:46;25;25;
64627;PMS5003;59036;50.960;0.314;2023-03-01T07:14:13;33;31;
64627;PMS5003;59036;50.960;0.314;2023-03-01T07:16:40;28;25;
64627;PMS5003;59036;50.960;0.314;2023-03-01T07:19:08;28;28;
64627;PMS5003;59036;50.960;0.314;2023-03-01T07:21:34;25;23;
64627;PMS5003;59036;50.960;0.314;2023-03-01T07:24:02;29;26;
64627;PMS5003;59036;50.960;0.314;2023-03-01T07:26:29;32;28;
64627;PMS5003;59036;50.960;0.314;2023-03-01T07:28:58;26;24;
64627;PMS5003;59036;50.960;0.314;2023-03-01T07:31:26;28;27;
64627;PMS5003;59036;50.960;0.314;2023-03-01T07:33:53;28;27;
64627;PMS5003;59036;50.960;0.314;2023-03-01T07:36:20;33;30;
64627;PMS5003;59036;50.960;0.314;2023-03-01T07:38:47;32;30;
64627;PMS5003;59036;50.960;0.314;2023-03-01T07:41:15;29;26;
64627;PMS5003;59036;50.960;0.314;2023-03-01T07:43:43;38;34;
64627;PMS5003;59036;50.960;0.314;2023-03-01T07:46:10;28;28;
64627;PMS5003;59036;50.960;0.314;2023-03-01T07:48:38;37;33;
64627;PMS5003;59036;50.960;0.314;2023-03-01T07:51:06;32;30;
64627;PMS5003;59036;50.960;0.314;2023-03-01T07:53:34;36;28;
64627;PMS5003;59036;50.960;0.314;2023-03-01T07:56:02;26;25;
64627;PMS5003;59036;50.960;0.314;2023-03-01T07:58:31;33;32;
64627;PMS5003;59036;50.960;0.314;2023-03-01T08:01:01;35;33;
64627;PMS5003;59036;50.960;0.314;2023-03-01T08:03:28;31;28;
64627;PMS5003;59036;50.960;0.314;2023-03-01T08:05:56;25;24;
64627;PMS5003;59036;50.960;0.314;2023-03-01T08:08:25;26;25;
64627;PMS5003;59036;50.960;0.314;2023-03-01T08:10:56;26;26;
64627;PMS5003;59036;50.960;0.314;2023-03-01T08:13:23;29;25;
64627;PMS5003;59036;50.960;0.314;2023-03-01T08:15:51;26;26;
64627;PMS5003;59036;50.960;0.314;2023-03-01T08:18:19;28;26;
64627;PMS5003;59036;50.960;0.314;2023-03-01T08:20:47;32;31;
64627;PMS5003;59036;50.960;0.314;2023-03-01T08:23:15;30;29;
64627;PMS5003;59036;50.960;0.314;2023-03-01T08:25:42;27;27;
64627;PMS5003;59036;50.960;0.314;2023-03-01T08:28:15;36;33;
64627;PMS5003;59036;50.960;0.314;2023-03-01T08:30:43;33;32;
64627;PMS5003;59036;50.960;0.314;2023-03-01T08:33:10;32;32;
64627;PMS5003;59036;50.960;0.314;2023-03-01T08:35:37;26;24;
64627;PMS5003;59036;50.960;0.314;2023-03-01T08:38:04;26;25;
64627;PMS5003;59036;50.960;0.314;2023-03-01T08:40:31;26;23;
64627;PMS5003;59036;50.960;0.314;2023-03-01T08:42:58;32;29;
64627;PMS5003;59036;50.960;0.314;2023-03-01T08:45:31;32;28;
64627;PMS5003;59036;50.960;0.314;2023-03-01T08:47:58;32;30;
64627;PMS5003;59036;50.960;0.314;2023-03-01T08:50:25;23;22;
64627;PMS5003;59036;50.960;0.314;2023-03-01T08:52:58;29;26;
64627;PMS5003;59036;50.960;0.314;2023-03-01T08:55:35;26;24;
64627;PMS5003;59036;50.960;0.314;2023-03-01T08:58:12;28;26;
64627;PMS5003;59036;50.960;0.314;2023-03-01T09:00:44;25;25;
64627;PMS5003;59036;50.960;0.314;2023-03-01T09:03:12;24;24;
64627;PMS5003;59036;50.960;0.314;2023-03-01T09:05:38;23;22;
64627;PMS5003;59036;50.960;0.314;2023-03-01T09:08:05;29;28;
64627;PMS5003;59036;50.960;0.314;2023-03-01T09:10:32;28;26;
64627;PMS5003;59036;50.960;0.314;2023-03-01T09:13:03;31;31;
64627;PMS5003;59036;50.960;0.314;2023-03-01T09:15:30;28;27;
64627;PMS5003;59036;50.960;0.314;2023-03-01T09:17:57;26;24;
64627;PMS5003;59036;50.960;0.314;2023-03-01T09:20:25;27;26;
64627;PMS5003;59036;50.960;0.314;2023-03-01T09:22:52;27;25;
64627;PMS5003;59036;50.960;0.314;2023-03-01T09:25:19;28;27;
64627;PMS5003;59036;50.960;0.314;2023-03-01T09:27:47;26;25;
64627;PMS5003;59036;50.960;0.314;2023-03-01T09:30:14;25;22;
64627;PMS5003;59036;50.960;0.314;2023-03-01T09:32:47;28;27;
64627;PMS5003;59036;50.960;0.314;2023-03-01T09:35:14;28;26;
64627;PMS5003;59036;50.960;0.314;2023-03-01T09:37:42;27;26;
64627;PMS5003;59036;50.960;0.314;2023-03-01T09:40:11;29;28;
64627;PMS5003;59036;50.960;0.314;2023-03-01T09:42:51;23;23;
64627;PMS5003;59036;50.960;0.314;2023-03-01T09:45:25;32;29;
64627;PMS5003;59036;50.960;0.314;2023-03-01T09:47:56;26;26;
64627;PMS5003;59036;50.960;0.314;2023-03-01T09:50:23;27;23;
64627;PMS5003;59036;50.960;0.314;2023-03-01T09:52:56;28;26;
64627;PMS5003;59036;50.960;0.314;2023-03-01T09:55:29;23;23;
64627;PMS5003;59036;50.960;0.314;2023-03-01T09:58:00;26;23;
64627;PMS5003;59036;50.960;0.314;2023-03-01T10:00:41;20;18;
64627;PMS5003;59036;50.960;0.314;2023-03-01T10:03:12;20;19;
64627;PMS5003;59036;50.960;0.314;2023-03-01T10:05:45;20;17;
64627;PMS5003;59036;50.960;0.314;2023-03-01T10:08:24;18;17;
64627;PMS5003;59036;50.960;0.314;2023-03-01T10:10:55;16;14;
64627;PMS5003;59036;50.960;0.314;2023-03-01T10:13:24;16;15;
64627;PMS5003;59036;50.960;0.314;2023-03-01T10:15:55;17;14;
64627;PMS5003;59036;50.960;0.314;2023-03-01T10:18:26;14;14;
64627;PMS5003;59036;50.960;0.314;2023-03-01T10:20:56;19;18;
64627;PMS5003;59036;50.960;0.314;2023-03-01T10:23:26;16;16;
64627;PMS5003;59036;50.960;0.314;2023-03-01T10:25:59;15;14;
64627;PMS5003;59036;50.960;0.314;2023-03-01T10:28:37;16;14;
64627;PMS5003;59036;50.960;0.314;2023-03-01T10:31:18;12;12;
64627;PMS5003;59036;50.960;0.314;2023-03-01T10:33:48;12;12;
64627;PMS5003;59036;50.960;0.314;2023-03-01T10:36:15;12;12;
64627;PMS5003;59036;50.960;0.314;2023-03-01T10:38:51;11;11;
64627;PMS5003;59036;50.960;0.314;2023-03-01T10:41:20;9;8;
64627;PMS5003;59036;50.960;0.314;2023-03-01T10:43:49;10;9;
64627;PMS5003;59036;50.960;0.314;2023-03-01T10:46:26;9;8;
64627;PMS5003;59036;50.960;0.314;2023-03-01T10:49:27;9;8;
64627;PMS5003;59036;50.960;0.314;2023-03-01T10:51:54;7;7;
64627;PMS5003;59036;50.960;0.314;2023-03-01T10:54:22;6;6;
64627;PMS5003;59036;50.960;0.314;2023-03-01T10:56:55;11;10;
64627;PMS5003;59036;50.960;0.314;2023-03-01T10:59:26;11;10;
64627;PMS5003;59036;50.960;0.314;2023-03-01T11:02:04;11;10;
64627;PMS5003;59036;50.960;0.314;2023-03-01T11:04:56;9;9;
64627;PMS5003;59036;50.960;0.314;2023-03-01T11:07:25;7;7;
64627;PMS5003;59036;50.960;0.314;2023-03-01T11:09:52;9;9;
64627;PMS5003;59036;50.960;0.314;2023-03-01T11:12:20;9;9;
64627;PMS5003;59036;50.960;0.314;2023-03-01T11:14:48;9;8;
64627;PMS5003;59036;50.960;0.314;2023-03-01T11:17:18;11;10;
64627;PMS5003;59036;50.960;0.314;2023-03-01T11:20:23;8;8;
64627;PMS5003;59036;50.960;0.314;2023-03-01T11:22:54;8;8;
64627;PMS5003;59036;50.960;0.314;2023-03-01T11:25:25;9;9;
64627;PMS5003;59036;50.960;0.314;2023-03-01T11:27:55;10;10;
64627;PMS5003;59036;50.960;0.314;2023-03-01T11:30:27;15;13;
64627;PMS5003;59036;50.960;0.314;2023-03-01T11:33:03;8;8;
64627;PMS5003;59036;50.960;0.314;2023-03-01T11:35:42;10;9;
64627;PMS5003;59036;50.960;0.314;2023-03-01T11:38:17;6;6;
64627;PMS5003;59036;50.960;0.314;2023-03-01T11:40:49;8;8;
64627;PMS5003;59036;50.960;0.314;2023-03-01T11:43:23;5;5;
64627;PMS5003;59036;50.960;0.314;2023-03-01T11:46:00;7;6;
64627;PMS5003;59036;50.960;0.314;2023-03-01T11:48:48;13;12;
64627;PMS5003;59036;50.960;0.314;2023-03-01T11:51:24;10;10;
64627;PMS5003;59036;50.960;0.314;2023-03-01T11:54:03;6;6;
64627;PMS5003;59036;50.960;0.314;2023-03-01T11:56:41;7;6;
64627;PMS5003;59036;50.960;0.314;2023-03-01T11:59:18;7;6;
64627;PMS5003;59036;50.960;0.314;2023-03-01T12:02:02;9;9;
64627;PMS5003;59036;50.960;0.314;2023-03-01T12:04:51;11;11;
64627;PMS5003;59036;50.960;0.314;2023-03-01T12:07:31;9;8;
64627;PMS5003;59036;50.960;0.314;2023-03-01T12:10:18;10;10;
64627;PMS5003;59036;50.960;0.314;2023-03-01T12:12:53;19;19;
64627;PMS5003;59036;50.960;0.314;2023-03-01T12:15:17;19;19;
64627;PMS5003;59036;50.960;0.314;2023-03-01T12:18:15;14;14;
64627;PMS5003;59036;50.960;0.314;2023-03-01T12:21:10;16;16;
64627;PMS5003;59036;50.960;0.314;2023-03-01T12:23:49;11;10;
64627;PMS5003;59036;50.960;0.314;2023-03-01T12:26:28;9;9;
64627;PMS5003;59036;50.960;0.314;2023-03-01T12:29:02;8;7;
64627;PMS5003;59036;50.960;0.314;2023-03-01T12:31:46;9;8;
64627;PMS5003;59036;50.960;0.314;2023-03-01T12:35:35;6;6;
64627;PMS5003;59036;50.960;0.314;2023-03-01T12:38:18;7;7;
64627;PMS5003;59036;50.960;0.314;2023-03-01T12:41:03;9;9;
64627;PMS5003;59036;50.960;0.314;2023-03-01T12:43:42;7;7;
64627;PMS5003;59036;50.960;0.314;2023-03-01T12:46:21;8;8;
64627;PMS5003;59036;50.960;0.314;2023-03-01T12:48:57;11;11;
64627;PMS5003;59036;50.960;0.314;2023-03-01T12:51:31;8;7;
64627;PMS5003;59036;50.960;0.314;2023-03-01T12:54:05;8;8;
64627;PMS5003;59036;50.960;0.314;2023-03-01T12:56:38;8;8;
64627;PMS5003;59036;50.960;0.314;2023-03-01T12:59:09;7;6;
64627;PMS5003;59036;50.960;0.314;2023-03-01T13:01:45;8;7;
64627;PMS5003;59036;50.960;0.314;2023-03-01T13:04:23;8;8;
64627;PMS5003;59036;50.960;0.314;2023-03-01T13:07:02;10;9;
64627;PMS5003;59036;50.960;0.314;2023-03-01T13:09:41;8;8;
64627;PMS5003;59036;50.960;0.314;2023-03-01T13:13:21;9;8;
64627;PMS5003;59036;50.960;0.314;2023-03-01T13:15:50;10;10;
64627;PMS5003;59036;50.960;0.314;2023-03-01T13:18:27;8;8;
64627;PMS5003;59036;50.960;0.314;2023-03-01T13:20:56;5;5;
64627;PMS5003;59036;50.960;0.314;2023-03-01T13:23:27;7;7;
64627;PMS5003;59036;50.960;0.314;2023-03-01T13:26:13;8;8;
64627;PMS5003;59036;50.960;0.314;2023-03-01T13:28:47;7;7;
64627;PMS5003;59036;50.960;0.314;2023-03-01T13:31:57;7;7;
64627;PMS5003;59036;50.960;0.314;2023-03-01T13:34:42;6;6;
64627;PMS5003;59036;50.960;0.314;2023-03-01T13:37:18;7;6;
64627;PMS5003;59036;50.960;0.314;2023-03-01T13:39:47;5;5;
64627;PMS5003;59036;50.960;0.314;2023-03-01T13:42:47;9;8;
64627;PMS5003;59036;50.960;0.314;2023-03-01T13:45:19;7;7;
64627;PMS5003;59036;50.960;0.314;2023-03-01T13:47:50;10;10;
64627;PMS5003;59036;50.960;0.314;2023-03-01T13:50:23;5;5;
64627;PMS5003;59036;50.960;0.314;2023-03-01T13:52:54;7;7;
64627;PMS5003;59036;50.960;0.314;2023-03-01T13:55:24;5;5;
64627;PMS5003;59036;50.960;0.314;2023-03-01T13:57:57;8;8;
64627;PMS5003;59036;50.960;0.314;2023-03-01T14:00:31;8;8;
64627;PMS5003;59036;50.960;0.314;2023-03-01T14:03:02;14;12;
64627;PMS5003;59036;50.960;0.314;2023-03-01T14:05:31;14;13;
64627;PMS5003;59036;50.960;0.314;2023-03-01T14:07:59;9;7;
64627;PMS5003;59036;50.960;0.314;2023-03-01T14:10:28;28;25;
64627;PMS5003;59036;50.960;0.314;2023-03-01T14:13:05;14;12;
64627;PMS5003;59036;50.960;0.314;2023-03-01T14:15:47;12;12;
64627;PMS5003;59036;50.960;0.314;2023-03-01T14:18:26;15;13;
64627;PMS5003;59036;50.960;0.314;2023-03-01T14:21:00;34;33;
64627;PMS5003;59036;50.960;0.314;2023-03-01T14:23:33;10;7;
64627;PMS5003;59036;50.960;0.314;2023-03-01T14:26:00;8;7;
64627;PMS5003;59036;50.960;0.314;2023-03-01T14:28:28;15;14;
64627;PMS5003;59036;50.960;0.314;2023-03-01T14:30:58;12;11;
64627;PMS5003;59036;50.960;0.314;2023-03-01T14:33:27;7;7;
64627;PMS5003;59036;50.960;0.314;2023-03-01T14:36:01;8;8;
64627;PMS5003;59036;50.960;0.314;2023-03-01T14:38:31;13;12;
64627;PMS5003;59036;50.960;0.314;2023-03-01T14:41:00;6;6;
64627;PMS5003;59036;50.960;0.314;2023-03-01T14:43:30;5;5;
64627;PMS5003;59036;50.960;0.314;2023-03-01T14:45:58;6;5;
64627;PMS5003;59036;50.960;0.314;2023-03-01T14:48:26;7;7;
64627;PMS5003;59036;50.960;0.314;2023-03-01T14:50:56;8;6;
64627;PMS5003;59036;50.960;0.314;2023-03-01T14:53:25;5;5;
64627;PMS5003;59036;50.960;0.314;2023-03-01T14:55:56;3;3;
64627;PMS5003;59036;50.960;0.314;2023-03-01T14:58:27;4;3;
64627;PMS5003;59036;50.960;0.314;2023-03-01T15:00:56;3;3;
64627;PMS5003;59036;50.960;0.314;2023-03-01T15:03:27;7;7;
64627;PMS5003;59036;50.960;0.314;2023-03-01T15:05:59;3;3;
64627;PMS5003;59036;50.960;0.314;2023-03-01T15:08:28;8;6;
64627;PMS5003;59036;50.960;0.314;2023-03-01T15:10:58;2;2;
64627;PMS5003;59036;50.960;0.314;2023-03-01T15:13:30;4;3;
64627;PMS5003;59036;50.960;0.314;2023-03-01T15:16:02;4;4;
64627;PMS5003;59036;50.960;0.314;2023-03-01T15:18:32;7;4;
64627;PMS5003;59036;50.960;0.314;2023-03-01T15:21:08;4;3;
64627;PMS5003;59036;50.960;0.314;2023-03-01T15:23:41;2;2;
64627;PMS5003;59036;50.960;0.314;2023-03-01T15:26:21;2;2;
64627;PMS5003;59036;50.960;0.314;2023-03-01T15:28:51;3;3;
64627;PMS5003;59036;50.960;0.314;2023-03-01T15:31:21;2;2;
64627;PMS5003;59036;50.960;0.314;2023-03-01T15:34:07;3;3;
64627;PMS5003;59036;50.960;0.314;2023-03-01T15:36:39;2;2;
64627;PMS5003;59036;50.960;0.314;2023-03-01T15:39:27;4;4;
64627;PMS5003;59036;50.960;0.314;2023-03-01T15:41:59;6;6;
64627;PMS5003;59036;50.960;0.314;2023-03-01T15:44:27;1;1;
64627;PMS5003;59036;50.960;0.314;2023-03-01T15:46:56;1;1;
64627;PMS5003;59036;50.960;0.314;2023-03-01T15:49:27;4;2;
64627;PMS5003;59036;50.960;0.314;2023-03-01T15:52:02;5;4;
64627;PMS5003;59036;50.960;0.314;2023-03-01T15:54:30;5;5;
64627;PMS5003;59036;50.960;0.314;2023-03-01T15:56:57;2;2;
64627;PMS5003;59036;50.960;0.314;2023-03-01T15:59:24;5;4;
64627;PMS5003;59036;50.960;0.314;2023-03-01T16:01:51;3;3;
64627;PMS5003;59036;50.960;0.314;2023-03-01T16:04:18;8;7;
64627;PMS5003;59036;50.960;0.314;2023-03-01T16:06:46;4;4;
64627;PMS5003;59036;50.960;0.314;2023-03-01T16:09:13;3;3;
64627;PMS5003;59036;50.960;0.314;2023-03-01T16:11:40;6;6;
64627;PMS5003;59036;50.960;0.314;2023-03-01T16:14:08;4;4;
64627;PMS5003;59036;50.960;0.314;2023-03-01T16:16:36;3;3;
64627;PMS5003;59036;50.960;0.314;2023-03-01T16:19:03;2;2;
64627;PMS5003;59036;50.960;0.314;2023-03-01T16:21:30;6;5;
64627;PMS5003;59036;50.960;0.314;2023-03-01T16:23:57;6;5;
64627;PMS5003;59036;50.960;0.314;2023-03-01T16:26:24;9;8;
64627;PMS5003;59036;50.960;0.314;2023-03-01T16:28:53;7;6;
64627;PMS5003;59036;50.960;0.314;2023-03-01T16:31:21;8;8;
64627;PMS5003;59036;50.960;0.314;2023-03-01T16:33:50;4;4;
64627;PMS5003;59036;50.960;0.314;2023-03-01T16:36:20;4;4;
64627;PMS5003;59036;50.960;0.314;2023-03-01T16:38:49;3;3;
64627;PMS5003;59036;50.960;0.314;2023-03-01T16:41:18;4;4;
64627;PMS5003;59036;50.960;0.314;2023-03-01T16:43:47;3;3;
64627;PMS5003;59036;50.960;0.314;2023-03-01T16:46:16;3;3;
64627;PMS5003;59036;50.960;0.314;2023-03-01T16:48:45;2;2;
64627;PMS5003;59036;50.960;0.314;2023-03-01T16:51:13;2;2;